sensor_id;sensor_type;location;lat;lon;timestamp;P1;durP1;ratioP1;P2;durP2;ratioP2
25023;SDS011;13033;50.936;5.334;2023-05-07T00:01:08;13.65;;;8.05;;
25023;SDS011;13033;50.936;5.334;2023-05-07T00:03:33;11.00;;;8.38;;
25023;SDS011;13033;50.936;5.334;2023-05-07T00:05:59;10.23;;;7.90;;
25023;SDS011;13033;50.936;5.334;2023-05-07T00:08:25;9.13;;;6.90;;
25023;SDS011;13033;50.936;5.334;2023-05-07T00:10:50;10.55;;;7.03;;
25023;SDS011;13033;50.936;5.334;2023-05-07T00:13:16;8.20;;;6.70;;
25023;SDS011;13033;50.936;5.334;2023-05-07T00:15:41;11.13;;;7.60;;
25023;SDS011;13033;50.936;5.334;2023-05-07T00:18:07;10.13;;;8.20;;
25023;SDS011;13033;50.936;5.334;2023-05-07T00:20:33;10.48;;;8.27;;
25023;SDS011;13033;50.936;5.334;2023-05-07T00:22:58;9.93;;;8.23;;
25023;SDS011;13033;50.936;5.334;2023-05-07T00:25:24;11.82;;;8.52;;
25023;SDS011;13033;50.936;5.334;2023-05-07T00:27:50;11.45;;;8.93;;
25023;SDS011;13033;50.936;5.334;2023-05-07T00:30:15;14.93;;;11.20;;
25023;SDS011;13033;50.936;5.334;2023-05-07T00:32:41;12.82;;;9.70;;
25023;SDS011;13033;50.936;5.334;2023-05-07T00:35:07;12.43;;;10.05;;
25023;SDS011;13033;50.936;5.334;2023-05-07T00:37:33;11.27;;;9.27;;
25023;SDS011;13033;50.936;5.334;2023-05-07T00:39:58;13.82;;;8.93;;
25023;SDS011;13033;50.936;5.334;2023-05-07T00:42:24;13.70;;;9.32;;
25023;SDS011;13033;50.936;5.334;2023-05-07T00:44:50;14.73;;;9.05;;
25023;SDS011;13033;50.936;5.334;2023-05-07T00:47:16;15.88;;;8.45;;
25023;SDS011;13033;50.936;5.334;2023-05-07T00:49:42;8.80;;;7.15;;
25023;SDS011;13033;50.936;5.334;2023-05-07T00:52:13;9.98;;;7.43;;
25023;SDS011;13033;50.936;5.334;2023-05-07T00:54:41;9.95;;;7.50;;
25023;SDS011;13033;50.936;5.334;2023-05-07T00:57:07;8.35;;;6.60;;
25023;SDS011;13033;50.936;5.334;2023-05-07T00:59:34;11.98;;;7.78;;
25023;SDS011;13033;50.936;5.334;2023-05-07T01:02:00;7.90;;;6.85;;
25023;SDS011;13033;50.936;5.334;2023-05-07T01:04:26;11.52;;;6.90;;
25023;SDS011;13033;50.936;5.334;2023-05-07T01:06:52;9.90;;;7.18;;
25023;SDS011;13033;50.936;5.334;2023-05-07T01:09:25;10.38;;;6.80;;
25023;SDS011;13033;50.936;5.334;2023-05-07T01:11:51;12.15;;;6.65;;
25023;SDS011;13033;50.936;5.334;2023-05-07T01:14:18;8.65;;;7.03;;
25023;SDS011;13033;50.936;5.334;2023-05-07T01:16:46;9.23;;;7.18;;
25023;SDS011;13033;50.936;5.334;2023-05-07T01:19:12;10.32;;;7.63;;
25023;SDS011;13033;50.936;5.334;2023-05-07T01:21:43;9.05;;;7.68;;
25023;SDS011;13033;50.936;5.334;2023-05-07T01:24:11;10.82;;;7.35;;
25023;SDS011;13033;50.936;5.334;2023-05-07T01:26:38;8.45;;;7.53;;
25023;SDS011;13033;50.936;5.334;2023-05-07T01:29:04;9.98;;;7.25;;
25023;SDS011;13033;50.936;5.334;2023-05-07T01:31:30;11.38;;;7.05;;
25023;SDS011;13033;50.936;5.334;2023-05-07T01:33:58;9.75;;;7.25;;
25023;SDS011;13033;50.936;5.334;2023-05-07T01:36:25;9.07;;;7.10;;
25023;SDS011;13033;50.936;5.334;2023-05-07T01:38:54;9.70;;;8.30;;
25023;SDS011;13033;50.936;5.334;2023-05-07T01:41:22;11.20;;;7.38;;
25023;SDS011;13033;50.936;5.334;2023-05-07T01:43:48;11.20;;;7.75;;
25023;SDS011;13033;50.936;5.334;2023-05-07T01:46:15;11.23;;;7.38;;
25023;SDS011;13033;50.936;5.334;2023-05-07T01:48:43;10.23;;;7.43;;
25023;SDS011;13033;50.936;5.334;2023-05-07T01:51:11;10.00;;;7.63;;
25023;SDS011;13033;50.936;5.334;2023-05-07T01:53:37;10.38;;;6.75;;
25023;SDS011;13033;50.936;5.334;2023-05-07T01:56:03;9.80;;;7.60;;
25023;SDS011;13033;50.936;5.334;2023-05-07T01:58:30;9.00;;;6.85;;
25023;SDS011;13033;50.936;5.334;2023-05-07T02:00:55;11.13;;;7.75;;
25023;SDS011;13033;50.936;5.334;2023-05-07T02:03:21;9.93;;;7.32;;
25023;SDS011;13033;50.936;5.334;2023-05-07T02:05:47;12.48;;;7.38;;
25023;SDS011;13033;50.936;5.334;2023-05-07T02:08:12;10.20;;;7.75;;
25023;SDS011;13033;50.936;5.334;2023-05-07T02:10:38;13.40;;;7.70;;
25023;SDS011;13033;50.936;5.334;2023-05-07T02:13:04;14.65;;;8.35;;
25023;SDS011;13033;50.936;5.334;2023-05-07T02:15:30;10.60;;;7.50;;
25023;SDS011;13033;50.936;5.334;2023-05-07T02:17:59;10.88;;;8.18;;
25023;SDS011;13033;50.936;5.334;2023-05-07T02:20:27;11.47;;;8.00;;
25023;SDS011;13033;50.936;5.334;2023-05-07T02:22:52;11.45;;;7.70;;
25023;SDS011;13033;50.936;5.334;2023-05-07T02:25:18;11.13;;;8.73;;
25023;SDS011;13033;50.936;5.334;2023-05-07T02:27:44;11.95;;;9.20;;
25023;SDS011;13033;50.936;5.334;2023-05-07T02:30:10;10.77;;;8.40;;
25023;SDS011;13033;50.936;5.334;2023-05-07T02:32:35;9.45;;;8.45;;
25023;SDS011;13033;50.936;5.334;2023-05-07T02:35:01;9.95;;;8.63;;
25023;SDS011;13033;50.936;5.334;2023-05-07T02:37:27;12.60;;;8.02;;
25023;SDS011;13033;50.936;5.334;2023-05-07T02:39:52;11.05;;;8.32;;
25023;SDS011;13033;50.936;5.334;2023-05-07T02:42:18;11.95;;;8.00;;
25023;SDS011;13033;50.936;5.334;2023-05-07T02:44:43;13.35;;;8.73;;
25023;SDS011;13033;50.936;5.334;2023-05-07T02:47:09;13.00;;;8.57;;
25023;SDS011;13033;50.936;5.334;2023-05-07T02:49:35;12.77;;;8.88;;
25023;SDS011;13033;50.936;5.334;2023-05-07T02:52:00;11.80;;;8.77;;
25023;SDS011;13033;50.936;5.334;2023-05-07T02:54:26;13.60;;;8.95;;
25023;SDS011;13033;50.936;5.334;2023-05-07T02:56:52;12.85;;;8.68;;
25023;SDS011;13033;50.936;5.334;2023-05-07T02:59:17;14.75;;;9.27;;
25023;SDS011;13033;50.936;5.334;2023-05-07T03:01:43;13.80;;;8.90;;
25023;SDS011;13033;50.936;5.334;2023-05-07T03:04:10;12.00;;;9.93;;
25023;SDS011;13033;50.936;5.334;2023-05-07T03:06:36;13.95;;;10.05;;
25023;SDS011;13033;50.936;5.334;2023-05-07T03:09:01;15.20;;;10.68;;
25023;SDS011;13033;50.936;5.334;2023-05-07T03:11:27;13.00;;;11.40;;
25023;SDS011;13033;50.936;5.334;2023-05-07T03:13:53;17.05;;;13.10;;
25023;SDS011;13033;50.936;5.334;2023-05-07T03:16:18;16.75;;;13.43;;
25023;SDS011;13033;50.936;5.334;2023-05-07T03:18:44;17.55;;;13.52;;
25023;SDS011;13033;50.936;5.334;2023-05-07T03:21:10;18.33;;;14.30;;
25023;SDS011;13033;50.936;5.334;2023-05-07T03:23:36;18.75;;;14.20;;
25023;SDS011;13033;50.936;5.334;2023-05-07T03:26:01;16.50;;;13.77;;
25023;SDS011;13033;50.936;5.334;2023-05-07T03:28:27;17.80;;;13.57;;
25023;SDS011;13033;50.936;5.334;2023-05-07T03:30:52;16.35;;;13.20;;
25023;SDS011;13033;50.936;5.334;2023-05-07T03:33:18;18.67;;;13.82;;
25023;SDS011;13033;50.936;5.334;2023-05-07T03:35:44;16.42;;;13.15;;
25023;SDS011;13033;50.936;5.334;2023-05-07T03:38:10;16.38;;;12.80;;
25023;SDS011;13033;50.936;5.334;2023-05-07T03:40:35;14.80;;;12.98;;
25023;SDS011;13033;50.936;5.334;2023-05-07T03:43:01;16.38;;;12.48;;
25023;SDS011;13033;50.936;5.334;2023-05-07T03:45:27;17.10;;;12.35;;
25023;SDS011;13033;50.936;5.334;2023-05-07T03:47:52;13.52;;;11.73;;
25023;SDS011;13033;50.936;5.334;2023-05-07T03:50:19;14.05;;;10.93;;
25023;SDS011;13033;50.936;5.334;2023-05-07T03:52:44;15.43;;;11.60;;
25023;SDS011;13033;50.936;5.334;2023-05-07T03:55:10;15.23;;;11.40;;
25023;SDS011;13033;50.936;5.334;2023-05-07T03:57:36;13.32;;;11.52;;
25023;SDS011;13033;50.936;5.334;2023-05-07T04:00:02;15.93;;;11.68;;
25023;SDS011;13033;50.936;5.334;2023-05-07T04:02:29;15.55;;;11.13;;
25023;SDS011;13033;50.936;5.334;2023-05-07T04:04:55;15.35;;;11.38;;
25023;SDS011;13033;50.936;5.334;2023-05-07T04:07:21;14.25;;;11.45;;
25023;SDS011;13033;50.936;5.334;2023-05-07T04:09:46;13.82;;;10.82;;
25023;SDS011;13033;50.936;5.334;2023-05-07T04:12:12;14.18;;;10.02;;
25023;SDS011;13033;50.936;5.334;2023-05-07T04:14:38;16.13;;;10.88;;
25023;SDS011;13033;50.936;5.334;2023-05-07T04:17:03;14.75;;;10.65;;
25023;SDS011;13033;50.936;5.334;2023-05-07T04:19:30;12.38;;;10.60;;
25023;SDS011;13033;50.936;5.334;2023-05-07T04:21:58;11.27;;;10.07;;
25023;SDS011;13033;50.936;5.334;2023-05-07T04:24:24;12.82;;;10.00;;
25023;SDS011;13033;50.936;5.334;2023-05-07T04:26:50;13.48;;;10.93;;
25023;SDS011;13033;50.936;5.334;2023-05-07T04:29:16;14.52;;;11.23;;
25023;SDS011;13033;50.936;5.334;2023-05-07T04:31:42;15.98;;;10.95;;
25023;SDS011;13033;50.936;5.334;2023-05-07T04:34:09;16.00;;;11.45;;
25023;SDS011;13033;50.936;5.334;2023-05-07T04:36:36;16.30;;;11.18;;
25023;SDS011;13033;50.936;5.334;2023-05-07T04:39:03;12.05;;;10.48;;
25023;SDS011;13033;50.936;5.334;2023-05-07T04:41:29;13.95;;;10.93;;
25023;SDS011;13033;50.936;5.334;2023-05-07T04:43:55;14.02;;;10.82;;
25023;SDS011;13033;50.936;5.334;2023-05-07T04:46:21;14.38;;;10.93;;
25023;SDS011;13033;50.936;5.334;2023-05-07T04:48:48;14.15;;;10.70;;
25023;SDS011;13033;50.936;5.334;2023-05-07T04:51:14;12.55;;;10.35;;
25023;SDS011;13033;50.936;5.334;2023-05-07T04:53:40;11.70;;;9.68;;
25023;SDS011;13033;50.936;5.334;2023-05-07T04:56:06;14.55;;;10.45;;
25023;SDS011;13033;50.936;5.334;2023-05-07T04:58:31;16.08;;;10.82;;
25023;SDS011;13033;50.936;5.334;2023-05-07T05:00:58;17.13;;;10.95;;
25023;SDS011;13033;50.936;5.334;2023-05-07T05:03:24;15.02;;;10.65;;
25023;SDS011;13033;50.936;5.334;2023-05-07T05:05:50;14.20;;;11.13;;
25023;SDS011;13033;50.936;5.334;2023-05-07T05:08:17;14.75;;;11.38;;
25023;SDS011;13033;50.936;5.334;2023-05-07T05:10:42;14.10;;;11.43;;
25023;SDS011;13033;50.936;5.334;2023-05-07T05:13:08;17.73;;;11.80;;
25023;SDS011;13033;50.936;5.334;2023-05-07T05:15:34;14.95;;;11.30;;
25023;SDS011;13033;50.936;5.334;2023-05-07T05:18:00;16.40;;;11.57;;
25023;SDS011;13033;50.936;5.334;2023-05-07T05:20:26;15.15;;;10.63;;
25023;SDS011;13033;50.936;5.334;2023-05-07T05:22:51;15.20;;;11.10;;
25023;SDS011;13033;50.936;5.334;2023-05-07T05:25:17;14.90;;;10.73;;
25023;SDS011;13033;50.936;5.334;2023-05-07T05:27:43;13.45;;;11.38;;
25023;SDS011;13033;50.936;5.334;2023-05-07T05:30:08;13.07;;;10.55;;
25023;SDS011;13033;50.936;5.334;2023-05-07T05:32:34;14.82;;;11.23;;
25023;SDS011;13033;50.936;5.334;2023-05-07T05:35:00;15.90;;;10.77;;
25023;SDS011;13033;50.936;5.334;2023-05-07T05:37:26;13.90;;;10.68;;
25023;SDS011;13033;50.936;5.334;2023-05-07T05:39:52;13.68;;;10.52;;
25023;SDS011;13033;50.936;5.334;2023-05-07T05:42:19;13.82;;;10.50;;
25023;SDS011;13033;50.936;5.334;2023-05-07T05:44:45;13.60;;;10.25;;
25023;SDS011;13033;50.936;5.334;2023-05-07T05:47:10;15.35;;;10.73;;
25023;SDS011;13033;50.936;5.334;2023-05-07T05:49:36;13.63;;;10.60;;
25023;SDS011;13033;50.936;5.334;2023-05-07T05:52:02;14.23;;;10.60;;
25023;SDS011;13033;50.936;5.334;2023-05-07T05:54:28;11.93;;;10.02;;
25023;SDS011;13033;50.936;5.334;2023-05-07T05:56:53;11.77;;;9.93;;
25023;SDS011;13033;50.936;5.334;2023-05-07T05:59:19;12.52;;;10.35;;
25023;SDS011;13033;50.936;5.334;2023-05-07T06:01:45;14.85;;;10.52;;
25023;SDS011;13033;50.936;5.334;2023-05-07T06:04:10;14.40;;;9.93;;
25023;SDS011;13033;50.936;5.334;2023-05-07T06:06:36;11.20;;;9.85;;
25023;SDS011;13033;50.936;5.334;2023-05-07T06:09:02;10.50;;;8.80;;
25023;SDS011;13033;50.936;5.334;2023-05-07T06:11:28;11.23;;;9.70;;
25023;SDS011;13033;50.936;5.334;2023-05-07T06:13:53;13.13;;;8.98;;
25023;SDS011;13033;50.936;5.334;2023-05-07T06:16:19;12.85;;;8.93;;
25023;SDS011;13033;50.936;5.334;2023-05-07T06:18:45;13.48;;;8.98;;
25023;SDS011;13033;50.936;5.334;2023-05-07T06:21:11;10.43;;;8.50;;
25023;SDS011;13033;50.936;5.334;2023-05-07T06:23:38;10.52;;;8.77;;
25023;SDS011;13033;50.936;5.334;2023-05-07T06:26:05;10.68;;;8.88;;
25023;SDS011;13033;50.936;5.334;2023-05-07T06:28:31;10.85;;;8.52;;
25023;SDS011;13033;50.936;5.334;2023-05-07T06:31:17;11.63;;;8.10;;
25023;SDS011;13033;50.936;5.334;2023-05-07T06:33:45;11.07;;;8.00;;
25023;SDS011;13033;50.936;5.334;2023-05-07T06:36:11;11.73;;;7.43;;
25023;SDS011;13033;50.936;5.334;2023-05-07T06:38:37;9.55;;;7.63;;
25023;SDS011;13033;50.936;5.334;2023-05-07T06:41:03;10.15;;;7.97;;
25023;SDS011;13033;50.936;5.334;2023-05-07T06:43:30;9.70;;;7.57;;
25023;SDS011;13033;50.936;5.334;2023-05-07T06:45:56;10.82;;;7.18;;
25023;SDS011;13033;50.936;5.334;2023-05-07T06:48:21;10.80;;;7.60;;
25023;SDS011;13033;50.936;5.334;2023-05-07T06:50:47;7.50;;;6.78;;
25023;SDS011;13033;50.936;5.334;2023-05-07T06:53:13;14.52;;;8.52;;
25023;SDS011;13033;50.936;5.334;2023-05-07T06:55:38;10.85;;;7.07;;
25023;SDS011;13033;50.936;5.334;2023-05-07T06:58:04;10.60;;;6.78;;
25023;SDS011;13033;50.936;5.334;2023-05-07T07:00:30;9.35;;;6.95;;
25023;SDS011;13033;50.936;5.334;2023-05-07T07:02:56;9.75;;;6.88;;
25023;SDS011;13033;50.936;5.334;2023-05-07T07:05:22;11.55;;;6.80;;
25023;SDS011;13033;50.936;5.334;2023-05-07T07:07:49;10.77;;;7.53;;
25023;SDS011;13033;50.936;5.334;2023-05-07T07:10:20;11.10;;;7.20;;
25023;SDS011;13033;50.936;5.334;2023-05-07T07:12:50;8.13;;;6.80;;
25023;SDS011;13033;50.936;5.334;2023-05-07T07:15:17;9.57;;;6.57;;
25023;SDS011;13033;50.936;5.334;2023-05-07T07:17:43;11.55;;;7.40;;
25023;SDS011;13033;50.936;5.334;2023-05-07T07:20:09;7.85;;;6.35;;
25023;SDS011;13033;50.936;5.334;2023-05-07T07:22:35;8.27;;;6.38;;
25023;SDS011;13033;50.936;5.334;2023-05-07T07:25:00;9.50;;;6.35;;
25023;SDS011;13033;50.936;5.334;2023-05-07T07:27:26;9.02;;;6.60;;
25023;SDS011;13033;50.936;5.334;2023-05-07T07:29:51;9.30;;;5.95;;
25023;SDS011;13033;50.936;5.334;2023-05-07T07:32:17;7.30;;;6.05;;
25023;SDS011;13033;50.936;5.334;2023-05-07T07:34:43;11.73;;;5.97;;
25023;SDS011;13033;50.936;5.334;2023-05-07T07:37:08;7.50;;;5.95;;
25023;SDS011;13033;50.936;5.334;2023-05-07T07:39:34;9.93;;;6.00;;
25023;SDS011;13033;50.936;5.334;2023-05-07T07:42:02;9.73;;;6.15;;
25023;SDS011;13033;50.936;5.334;2023-05-07T07:44:28;9.25;;;5.82;;
25023;SDS011;13033;50.936;5.334;2023-05-07T07:46:53;9.45;;;6.40;;
25023;SDS011;13033;50.936;5.334;2023-05-07T07:49:19;8.90;;;5.45;;
25023;SDS011;13033;50.936;5.334;2023-05-07T07:51:45;8.40;;;5.55;;
25023;SDS011;13033;50.936;5.334;2023-05-07T07:54:11;7.57;;;5.80;;
25023;SDS011;13033;50.936;5.334;2023-05-07T07:56:36;9.88;;;5.68;;
25023;SDS011;13033;50.936;5.334;2023-05-07T07:59:02;9.25;;;6.15;;
25023;SDS011;13033;50.936;5.334;2023-05-07T08:01:31;8.57;;;6.50;;
25023;SDS011;13033;50.936;5.334;2023-05-07T08:04:03;6.60;;;5.55;;
25023;SDS011;13033;50.936;5.334;2023-05-07T08:06:30;9.35;;;6.05;;
25023;SDS011;13033;50.936;5.334;2023-05-07T08:08:56;8.85;;;5.57;;
25023;SDS011;13033;50.936;5.334;2023-05-07T08:11:21;6.85;;;5.35;;
25023;SDS011;13033;50.936;5.334;2023-05-07T08:13:47;7.18;;;4.75;;
25023;SDS011;13033;50.936;5.334;2023-05-07T08:16:13;7.70;;;4.88;;
25023;SDS011;13033;50.936;5.334;2023-05-07T08:18:39;6.65;;;4.78;;
25023;SDS011;13033;50.936;5.334;2023-05-07T08:21:05;9.75;;;5.18;;
25023;SDS011;13033;50.936;5.334;2023-05-07T08:23:30;8.45;;;5.25;;
25023;SDS011;13033;50.936;5.334;2023-05-07T08:25:56;8.23;;;5.65;;
25023;SDS011;13033;50.936;5.334;2023-05-07T08:28:22;7.40;;;5.25;;
25023;SDS011;13033;50.936;5.334;2023-05-07T08:30:49;8.55;;;5.25;;
25023;SDS011;13033;50.936;5.334;2023-05-07T08:33:15;10.85;;;5.05;;
25023;SDS011;13033;50.936;5.334;2023-05-07T08:35:41;8.10;;;5.38;;
25023;SDS011;13033;50.936;5.334;2023-05-07T08:38:06;9.68;;;5.32;;
25023;SDS011;13033;50.936;5.334;2023-05-07T08:40:34;8.05;;;5.80;;
25023;SDS011;13033;50.936;5.334;2023-05-07T08:43:02;8.13;;;5.97;;
25023;SDS011;13033;50.936;5.334;2023-05-07T08:45:30;12.13;;;6.47;;
25023;SDS011;13033;50.936;5.334;2023-05-07T08:47:58;9.38;;;6.68;;
25023;SDS011;13033;50.936;5.334;2023-05-07T08:50:26;10.35;;;6.50;;
25023;SDS011;13033;50.936;5.334;2023-05-07T08:52:52;10.20;;;6.57;;
25023;SDS011;13033;50.936;5.334;2023-05-07T08:55:18;8.80;;;6.60;;
25023;SDS011;13033;50.936;5.334;2023-05-07T08:57:45;8.88;;;6.40;;
25023;SDS011;13033;50.936;5.334;2023-05-07T09:00:11;9.35;;;6.20;;
25023;SDS011;13033;50.936;5.334;2023-05-07T09:02:38;9.75;;;6.00;;
25023;SDS011;13033;50.936;5.334;2023-05-07T09:05:03;12.82;;;6.55;;
25023;SDS011;13033;50.936;5.334;2023-05-07T09:07:29;10.38;;;5.97;;
25023;SDS011;13033;50.936;5.334;2023-05-07T09:09:56;9.32;;;6.38;;
25023;SDS011;13033;50.936;5.334;2023-05-07T09:12:22;8.65;;;5.80;;
25023;SDS011;13033;50.936;5.334;2023-05-07T09:14:48;8.55;;;6.75;;
25023;SDS011;13033;50.936;5.334;2023-05-07T09:17:15;13.25;;;7.03;;
25023;SDS011;13033;50.936;5.334;2023-05-07T09:19:42;10.13;;;6.72;;
25023;SDS011;13033;50.936;5.334;2023-05-07T09:22:12;12.10;;;7.30;;
25023;SDS011;13033;50.936;5.334;2023-05-07T09:24:38;12.30;;;7.60;;
25023;SDS011;13033;50.936;5.334;2023-05-07T09:27:04;11.40;;;7.80;;
25023;SDS011;13033;50.936;5.334;2023-05-07T09:29:31;10.27;;;7.43;;
25023;SDS011;13033;50.936;5.334;2023-05-07T09:32:03;10.95;;;7.20;;
25023;SDS011;13033;50.936;5.334;2023-05-07T09:34:30;11.23;;;6.95;;
25023;SDS011;13033;50.936;5.334;2023-05-07T09:37:03;11.32;;;8.68;;
25023;SDS011;13033;50.936;5.334;2023-05-07T09:39:39;11.95;;;7.95;;
25023;SDS011;13033;50.936;5.334;2023-05-07T09:44:39;11.07;;;7.70;;
25023;SDS011;13033;50.936;5.334;2023-05-07T09:47:06;13.85;;;8.05;;
25023;SDS011;13033;50.936;5.334;2023-05-07T09:49:35;10.18;;;6.68;;
25023;SDS011;13033;50.936;5.334;2023-05-07T09:52:07;11.90;;;6.80;;
25023;SDS011;13033;50.936;5.334;2023-05-07T09:54:34;12.23;;;6.30;;
25023;SDS011;13033;50.936;5.334;2023-05-07T09:57:02;11.02;;;6.15;;
25023;SDS011;13033;50.936;5.334;2023-05-07T09:59:29;10.27;;;6.57;;
25023;SDS011;13033;50.936;5.334;2023-05-07T10:02:00;10.95;;;6.53;;
25023;SDS011;13033;50.936;5.334;2023-05-07T10:04:26;14.40;;;7.13;;
25023;SDS011;13033;50.936;5.334;2023-05-07T10:06:52;9.52;;;6.68;;
25023;SDS011;13033;50.936;5.334;2023-05-07T10:09:20;11.55;;;6.47;;
25023;SDS011;13033;50.936;5.334;2023-05-07T10:11:48;14.50;;;6.90;;
25023;SDS011;13033;50.936;5.334;2023-05-07T10:14:14;10.30;;;6.55;;
25023;SDS011;13033;50.936;5.334;2023-05-07T10:16:40;11.77;;;7.53;;
25023;SDS011;13033;50.936;5.334;2023-05-07T10:19:06;12.23;;;6.45;;
25023;SDS011;13033;50.936;5.334;2023-05-07T10:21:37;11.90;;;6.72;;
25023;SDS011;13033;50.936;5.334;2023-05-07T10:24:20;12.07;;;6.82;;
25023;SDS011;13033;50.936;5.334;2023-05-07T10:26:50;11.23;;;7.00;;
25023;SDS011;13033;50.936;5.334;2023-05-07T10:34:40;13.88;;;8.00;;
25023;SDS011;13033;50.936;5.334;2023-05-07T10:37:09;15.70;;;7.70;;
25023;SDS011;13033;50.936;5.334;2023-05-07T10:39:36;14.80;;;7.18;;
25023;SDS011;13033;50.936;5.334;2023-05-07T10:42:08;16.70;;;7.72;;
25023;SDS011;13033;50.936;5.334;2023-05-07T10:44:35;13.50;;;8.02;;
25023;SDS011;13033;50.936;5.334;2023-05-07T10:49:33;17.85;;;8.85;;
25023;SDS011;13033;50.936;5.334;2023-05-07T10:52:23;14.65;;;8.88;;
25023;SDS011;13033;50.936;5.334;2023-05-07T10:57:46;14.18;;;8.18;;
25023;SDS011;13033;50.936;5.334;2023-05-07T11:05:24;12.85;;;7.65;;
25023;SDS011;13033;50.936;5.334;2023-05-07T11:07:57;14.30;;;7.05;;
25023;SDS011;13033;50.936;5.334;2023-05-07T11:13:15;11.25;;;6.90;;
25023;SDS011;13033;50.936;5.334;2023-05-07T11:15:43;14.73;;;6.97;;
25023;SDS011;13033;50.936;5.334;2023-05-07T11:18:11;14.18;;;7.00;;
25023;SDS011;13033;50.936;5.334;2023-05-07T11:20:47;15.90;;;6.50;;
25023;SDS011;13033;50.936;5.334;2023-05-07T11:28:32;11.23;;;6.40;;
25023;SDS011;13033;50.936;5.334;2023-05-07T11:31:02;12.35;;;6.25;;
25023;SDS011;13033;50.936;5.334;2023-05-07T11:33:29;13.85;;;6.93;;
25023;SDS011;13033;50.936;5.334;2023-05-07T11:35:55;11.50;;;6.68;;
25023;SDS011;13033;50.936;5.334;2023-05-07T11:38:21;13.13;;;6.80;;
25023;SDS011;13033;50.936;5.334;2023-05-07T11:40:50;15.48;;;7.22;;
25023;SDS011;13033;50.936;5.334;2023-05-07T11:43:21;11.70;;;5.93;;
25023;SDS011;13033;50.936;5.334;2023-05-07T11:45:47;12.65;;;6.38;;
25023;SDS011;13033;50.936;5.334;2023-05-07T11:48:14;12.63;;;5.68;;
25023;SDS011;13033;50.936;5.334;2023-05-07T11:50:50;15.15;;;6.32;;
25023;SDS011;13033;50.936;5.334;2023-05-07T11:53:20;13.15;;;5.53;;
25023;SDS011;13033;50.936;5.334;2023-05-07T11:55:51;10.13;;;5.82;;
25023;SDS011;13033;50.936;5.334;2023-05-07T11:58:20;9.90;;;6.28;;
25023;SDS011;13033;50.936;5.334;2023-05-07T12:00:51;12.18;;;5.80;;
25023;SDS011;13033;50.936;5.334;2023-05-07T12:03:18;13.13;;;6.25;;
25023;SDS011;13033;50.936;5.334;2023-05-07T12:05:44;11.07;;;5.75;;
25023;SDS011;13033;50.936;5.334;2023-05-07T12:08:14;11.98;;;5.63;;
25023;SDS011;13033;50.936;5.334;2023-05-07T12:10:43;9.77;;;5.38;;
25023;SDS011;13033;50.936;5.334;2023-05-07T12:13:17;13.13;;;5.82;;
25023;SDS011;13033;50.936;5.334;2023-05-07T12:15:43;12.57;;;6.13;;
25023;SDS011;13033;50.936;5.334;2023-05-07T12:18:09;12.10;;;6.07;;
25023;SDS011;13033;50.936;5.334;2023-05-07T12:20:36;9.15;;;5.80;;
25023;SDS011;13033;50.936;5.334;2023-05-07T12:23:02;10.55;;;6.45;;
25023;SDS011;13033;50.936;5.334;2023-05-07T12:25:31;12.88;;;6.78;;
25023;SDS011;13033;50.936;5.334;2023-05-07T12:28:04;8.43;;;5.85;;
25023;SDS011;13033;50.936;5.334;2023-05-07T12:30:39;9.80;;;5.82;;
25023;SDS011;13033;50.936;5.334;2023-05-07T12:33:06;8.95;;;5.28;;
25023;SDS011;13033;50.936;5.334;2023-05-07T12:35:32;12.02;;;5.32;;
25023;SDS011;13033;50.936;5.334;2023-05-07T12:40:38;13.18;;;5.80;;
25023;SDS011;13033;50.936;5.334;2023-05-07T12:43:05;8.93;;;5.32;;
25023;SDS011;13033;50.936;5.334;2023-05-07T12:45:31;10.50;;;5.07;;
25023;SDS011;13033;50.936;5.334;2023-05-07T12:48:01;9.07;;;5.32;;
25023;SDS011;13033;50.936;5.334;2023-05-07T12:50:30;9.77;;;5.22;;
25023;SDS011;13033;50.936;5.334;2023-05-07T12:52:58;10.55;;;4.78;;
25023;SDS011;13033;50.936;5.334;2023-05-07T12:55:23;12.63;;;5.05;;
25023;SDS011;13033;50.936;5.334;2023-05-07T12:57:49;10.50;;;5.38;;
25023;SDS011;13033;50.936;5.334;2023-05-07T13:00:16;9.70;;;5.50;;
25023;SDS011;13033;50.936;5.334;2023-05-07T13:02:42;8.38;;;4.93;;
25023;SDS011;13033;50.936;5.334;2023-05-07T13:05:09;10.35;;;5.32;;
25023;SDS011;13033;50.936;5.334;2023-05-07T13:07:35;9.85;;;4.90;;
25023;SDS011;13033;50.936;5.334;2023-05-07T13:10:02;7.95;;;4.32;;
25023;SDS011;13033;50.936;5.334;2023-05-07T13:12:27;10.57;;;5.07;;
25023;SDS011;13033;50.936;5.334;2023-05-07T13:14:53;10.15;;;4.75;;
25023;SDS011;13033;50.936;5.334;2023-05-07T13:17:19;6.97;;;4.15;;
25023;SDS011;13033;50.936;5.334;2023-05-07T13:19:44;6.63;;;4.10;;
25023;SDS011;13033;50.936;5.334;2023-05-07T13:22:10;9.85;;;3.83;;
25023;SDS011;13033;50.936;5.334;2023-05-07T13:24:36;7.82;;;3.10;;
25023;SDS011;13033;50.936;5.334;2023-05-07T13:27:01;7.50;;;3.15;;
25023;SDS011;13033;50.936;5.334;2023-05-07T13:29:28;7.07;;;2.67;;
25023;SDS011;13033;50.936;5.334;2023-05-07T13:31:58;9.48;;;3.28;;
25023;SDS011;13033;50.936;5.334;2023-05-07T13:34:24;14.70;;;3.90;;
25023;SDS011;13033;50.936;5.334;2023-05-07T13:36:50;6.28;;;3.33;;
25023;SDS011;13033;50.936;5.334;2023-05-07T13:39:16;5.97;;;3.00;;
25023;SDS011;13033;50.936;5.334;2023-05-07T13:41:42;7.82;;;3.28;;
25023;SDS011;13033;50.936;5.334;2023-05-07T13:44:08;6.78;;;3.88;;
25023;SDS011;13033;50.936;5.334;2023-05-07T13:46:33;7.68;;;3.90;;
25023;SDS011;13033;50.936;5.334;2023-05-07T13:48:59;9.05;;;3.78;;
25023;SDS011;13033;50.936;5.334;2023-05-07T13:51:25;6.13;;;3.20;;
25023;SDS011;13033;50.936;5.334;2023-05-07T13:53:50;6.43;;;3.50;;
25023;SDS011;13033;50.936;5.334;2023-05-07T13:56:17;8.10;;;3.35;;
25023;SDS011;13033;50.936;5.334;2023-05-07T13:58:43;5.93;;;2.78;;
25023;SDS011;13033;50.936;5.334;2023-05-07T14:01:08;6.75;;;3.25;;
25023;SDS011;13033;50.936;5.334;2023-05-07T14:03:34;7.88;;;3.33;;
25023;SDS011;13033;50.936;5.334;2023-05-07T14:06:02;8.55;;;3.38;;
25023;SDS011;13033;50.936;5.334;2023-05-07T14:08:28;9.38;;;3.65;;
25023;SDS011;13033;50.936;5.334;2023-05-07T14:10:54;7.93;;;4.00;;
25023;SDS011;13033;50.936;5.334;2023-05-07T14:13:20;7.43;;;3.03;;
25023;SDS011;13033;50.936;5.334;2023-05-07T14:15:46;7.90;;;3.55;;
25023;SDS011;13033;50.936;5.334;2023-05-07T14:18:13;6.80;;;2.80;;
25023;SDS011;13033;50.936;5.334;2023-05-07T14:20:39;6.20;;;3.00;;
25023;SDS011;13033;50.936;5.334;2023-05-07T14:23:04;10.20;;;3.35;;
25023;SDS011;13033;50.936;5.334;2023-05-07T14:25:30;11.00;;;3.90;;
25023;SDS011;13033;50.936;5.334;2023-05-07T14:27:56;8.13;;;4.30;;
25023;SDS011;13033;50.936;5.334;2023-05-07T14:30:21;6.20;;;3.47;;
25023;SDS011;13033;50.936;5.334;2023-05-07T14:32:49;8.38;;;4.05;;
25023;SDS011;13033;50.936;5.334;2023-05-07T14:35:15;6.80;;;2.88;;
25023;SDS011;13033;50.936;5.334;2023-05-07T14:37:41;7.28;;;2.65;;
25023;SDS011;13033;50.936;5.334;2023-05-07T14:40:07;5.75;;;2.30;;
25023;SDS011;13033;50.936;5.334;2023-05-07T14:42:33;6.53;;;2.53;;
25023;SDS011;13033;50.936;5.334;2023-05-07T14:44:59;8.10;;;3.08;;
25023;SDS011;13033;50.936;5.334;2023-05-07T14:47:25;6.47;;;2.63;;
25023;SDS011;13033;50.936;5.334;2023-05-07T14:49:51;9.63;;;3.25;;
25023;SDS011;13033;50.936;5.334;2023-05-07T14:52:18;7.78;;;3.90;;
25023;SDS011;13033;50.936;5.334;2023-05-07T14:54:43;7.13;;;3.20;;
25023;SDS011;13033;50.936;5.334;2023-05-07T14:57:10;5.57;;;3.05;;
25023;SDS011;13033;50.936;5.334;2023-05-07T14:59:38;9.32;;;3.63;;
25023;SDS011;13033;50.936;5.334;2023-05-07T15:02:04;7.32;;;3.70;;